METAR AND TAF INFORMATION
METAR FOR FAKM
ADDS - METARS form results

(0706 UTC 27 May 2019)
Data provider http://aviationweather.gov/metar/data/
 
METAR text: FAKM 270700Z 02005KT CAVOK 15/04 Q1024
Conditions at: FAKM (KIMBERLEY/BJ VOR, ZA) observed 0700 UTC 27 May 2019
Temperature: 15.0°C (59°F)
Dewpoint: 4.0°C (39°F) [RH = 48%]
Pressure (altimeter): 30.24 inches Hg (1024.0 mb)
Winds: from the NNE (20 degrees) at 6 MPH (5 knots; 2.6 m/s)
Visibility: 6 or more miles (10+ km)
Ceiling: ceiling and visibility are OK
Clouds: unknown
Weather: no significant weather observed at this time

METAR text: FAKM 270632Z 00000KT CAVOK 13/06 Q1024
Conditions at: FAKM (KIMBERLEY/BJ VOR, ZA) observed 0632 UTC 27 May 2019
Temperature: 13.0°C (55°F)
Dewpoint: 6.0°C (43°F) [RH = 62%]
Pressure (altimeter): 30.24 inches Hg (1024.0 mb)
Winds: calm
Visibility: 6 or more miles (10+ km)
Ceiling: ceiling and visibility are OK
Clouds: unknown
Weather: no significant weather observed at this time

Forecast for: FAKM (KIMBERLEY/BJ VOR, ZA)
Text: TAF FAKM 270600Z 2707/2718 VRB03KT CAVOK TX23/2713Z TN15/2718Z
Forecast period: 0700 to 1800 UTC 27 May 2019
Forecast type: FROM: standard forecast or significant change
Winds: variable direction winds at 3 MPH (3 knots; 1.5 m/s)
Visibility: 6 or more miles 10+ km)
Ceiling: unknown
Clouds: missing
Weather: no significant weather forecast for this period

 AIRPORT MAP

 RUNWAY INFORMATION
Runway 02 Runway length 9843 ft Runway width 150 ft
Runway elevation 3900 ft Runway displaced threshold 0 ft Runway heading 359
Runway 20 Runway length 9843 ft Runway width 150 ft
Runway elevation 3940 ft Runway displaced threshold 0 ft Runway heading 179
Runway 10 Runway length 8002 ft Runway width 148 ft
Runway elevation 3950 ft Runway displaced threshold 0 ft Runway heading 80
Runway 28 Runway length 8002 ft Runway width 148 ft
Runway elevation 3915 ft Runway displaced threshold 0 ft Runway heading 260

 AIRPORT FREQUENCIES
Type APP Name BLOEMFONTE Frequency 119.4 MHZ
Type GTE Name APRON Frequency 122.65 MHZ
Type TWR Name TWR Frequency 118.6 MHZ

 AIRPORT NEAR NAVIGATION AIDS
Type NDB Name Kimberley Frequency 365 KHZ
Type VOR-DME Name Kimberley Frequency 113200 KHZ



The South Africal Virtual Air Force